Terminal Aerodrome Forecast
Issued by NWS Indianapolis, IN

Home | Current Version | Previous Version | Text Only | Print | Product List | Glossary On
Versions: 1 2 3 4 5 6 7 8 9 10 11 12 13 14 15 16 17 18 19 20 21 22 23 24 25 26 27
000
FTUS43 KIND 232000 AAA
TAFIND
TAF AMD
KIND 232019Z 2320/2424 21003KT P6SM BKN200
     FM241500 24007KT P6SM SCT040 BKN100
     FM242300 22005KT P6SM BKN150=

USA.gov is the U.S. government's official web portal to all federal, state and local government web resources and services.